Orbital elements of FENGYUN 1C DEB
| Launched | 9 May 1999 |
| Flight ended | – |
| Launch site | Taiyuan Space Center, PRC |
| Owner | People's Republic of China |
| NORAD ID | 29870 |
| Date fetched |
Epoch osculation |
Inc. [°] |
Ecc. | RA asc node [hr] |
Arg Peri. [°] |
Mean anom [°] |
Mean motion [rev/day] |
Abs. mag |
| Date fetched |
Epoch osculation |
Inc. [°] |
Ecc. | RA asc node [hr] |
Arg Peri. [°] |
Mean anom [°] |
Mean motion [rev/day] |
Abs. mag |
| 2026 May 08 17:57 | 2026 May 05 09:45:42 | 98.4818 | 0.01209 | 6.4860 | 129.5154 | 21.3638 | 14.29040 | – |
| 2026 May 07 17:58 | 2026 May 05 09:45:42 | 98.4818 | 0.01209 | 6.4860 | 129.5154 | 21.3638 | 14.29040 | – |
| 2026 May 06 17:57 | 2026 May 05 09:45:42 | 98.4818 | 0.01209 | 6.4860 | 129.5154 | 21.3638 | 14.29040 | – |
| 2026 May 05 17:57 | 2026 May 05 09:45:42 | 98.4818 | 0.01209 | 6.4860 | 129.5154 | 21.3638 | 14.29040 | – |
| 2026 May 04 17:57 | 2026 Apr 30 12:01:14 | 98.4812 | 0.01207 | 6.1677 | 143.8682 | 21.3638 | 14.29040 | – |
| 2026 May 03 17:57 | 2026 Apr 30 12:01:14 | 98.4812 | 0.01207 | 6.1677 | 143.8682 | 21.3638 | 14.29040 | – |
| 2026 May 02 17:57 | 2026 Apr 30 12:01:14 | 98.4812 | 0.01207 | 6.1677 | 143.8682 | 21.3638 | 14.29040 | – |
| 2026 May 01 17:56 | 2026 Apr 30 12:01:14 | 98.4812 | 0.01207 | 6.1677 | 143.8682 | 21.3638 | 14.29040 | – |
| 2026 Apr 30 17:56 | 2026 Apr 30 12:01:14 | 98.4812 | 0.01207 | 6.1677 | 143.8682 | 21.3638 | 14.29040 | – |
| 2026 Apr 29 17:57 | 2026 Apr 24 11:29:03 | 98.4806 | 0.01204 | 5.7769 | 161.5200 | 21.3638 | 14.29040 | – |
| 2026 Apr 28 17:56 | 2026 Apr 24 11:29:03 | 98.4806 | 0.01204 | 5.7769 | 161.5200 | 21.3638 | 14.29040 | – |
| 2026 Apr 27 17:58 | 2026 Apr 24 11:29:03 | 98.4806 | 0.01204 | 5.7769 | 161.5200 | 21.3638 | 14.29040 | – |
| 2026 Apr 26 17:58 | 2026 Apr 24 11:29:03 | 98.4806 | 0.01204 | 5.7769 | 161.5200 | 21.3638 | 14.29040 | – |
| 2026 Apr 25 17:58 | 2026 Apr 24 11:29:03 | 98.4806 | 0.01204 | 5.7769 | 161.5200 | 21.3638 | 14.29040 | – |
| 2026 Apr 24 17:59 | 2026 Apr 24 11:29:03 | 98.4806 | 0.01204 | 5.7769 | 161.5200 | 21.3638 | 14.29040 | – |
| 2026 Apr 23 17:57 | 2026 Apr 19 08:58:41 | 98.4802 | 0.01201 | 5.4458 | 176.5298 | 21.3638 | 14.29040 | – |
| 2026 Apr 22 17:57 | 2026 Apr 19 08:58:41 | 98.4802 | 0.01201 | 5.4458 | 176.5298 | 21.3638 | 14.29040 | – |
| 2026 Apr 21 17:57 | 2026 Apr 19 08:58:41 | 98.4802 | 0.01201 | 5.4458 | 176.5298 | 21.3638 | 14.29040 | – |
| 2026 Apr 20 17:57 | 2026 Apr 19 08:58:41 | 98.4802 | 0.01201 | 5.4458 | 176.5298 | 21.3638 | 14.29040 | – |
| 2026 Apr 19 17:58 | 2026 Apr 19 08:58:41 | 98.4802 | 0.01201 | 5.4458 | 176.5298 | 21.3638 | 14.29040 | – |
| 2026 Apr 18 17:56 | 2026 Apr 13 04:27:32 | 98.4793 | 0.01197 | 5.0443 | 194.7792 | 21.3638 | 14.29040 | – |
| 2026 Apr 16 17:57 | 2026 Apr 13 04:27:32 | 98.4793 | 0.01197 | 5.0443 | 194.7792 | 21.3638 | 14.29040 | – |
| 2026 Apr 14 17:57 | 2026 Apr 13 04:27:32 | 98.4793 | 0.01197 | 5.0443 | 194.7792 | 21.3638 | 14.29040 | – |
| 2026 Apr 13 17:57 | 2026 Apr 13 04:27:32 | 98.4793 | 0.01197 | 5.0443 | 194.7792 | 21.3638 | 14.29040 | – |
| 2026 Apr 12 17:57 | 2026 Apr 08 09:10:43 | 98.4787 | 0.01195 | 4.7328 | 208.9710 | 21.3638 | 14.29040 | – |
| 2026 Apr 11 17:57 | 2026 Apr 08 09:10:43 | 98.4787 | 0.01195 | 4.7328 | 208.9710 | 21.3638 | 14.29040 | – |